AIRPORT MAP

 RUNWAY INFORMATION

Runway 02 Runway length 9842 ft Runway width 148 ft
Runway elevation 82 ft Runway displaced threshold 0 ft Runway heading 10
Runway 20 Runway length 9842 ft Runway width 148 ft
Runway elevation 77 ft Runway displaced threshold 0 ft Runway heading 190

 AIRPORT FREQUENCIES

Type TWR Name TWR/APP Frequency 118.7 MHZ

 AIRPORT NEAR NAVIGATION AIDS

Type VOR-DME Name Rosario Frequency 117300 KHZ

 METAR AND TAF INFORMATION

METAR FOR SAAR
ADDS - METARS form results

(2034 UTC 07 August 2020)
Data provider http://aviationweather.gov/metar/data/
 
METAR text: SAAR 072024Z 14006KT 9000 -RA FEW019 SCT024 BKN100 13/11 Q1020 RETS
Conditions at: SAAR (ROSARIO AIRPORT , AR) observed 2024 UTC 07 August 2020
Temperature: 13.0°C (55°F)
Dewpoint: 11.0°C (52°F) [RH = 88%]
Pressure (altimeter): 30.12 inches Hg (1020.0 mb)
Winds: from the SE (140 degrees) at 7 MPH (6 knots; 3.1 m/s)
Visibility: 6 miles ( 9 km)
Ceiling: 10000 feet AGL
Clouds: few clouds at 1900 feet AGL
scattered clouds at 2400 feet AGL
broken clouds at 10000 feet AGL
Weather: -RA  (light rain)

METAR text: SAAR 072005Z 11011KT 9000 -TSRA BKN016 FEW045CB OVC100 13/11 Q1021
Conditions at: SAAR (ROSARIO AIRPORT , AR) observed 2005 UTC 07 August 2020
Temperature: 13.0°C (55°F)
Dewpoint: 11.0°C (52°F) [RH = 88%]
Pressure (altimeter): 30.15 inches Hg (1021.0 mb)
Winds: from the ESE (110 degrees) at 13 MPH (11 knots; 5.7 m/s)
Visibility: 6 miles ( 9 km)
Ceiling: 1600 feet AGL
Clouds: broken clouds at 1600 feet AGL
few clouds at 4500 feet AGL
overcast cloud deck at 10000 feet AGL
Weather: -TSRA  (light rain associated with thunderstorm(s))

METAR text: SAAR 072000Z 11007KT 9000 -RA BKN016 OVC100 13/11 Q1021
Conditions at: SAAR (ROSARIO AIRPORT , AR) observed 2000 UTC 07 August 2020
Temperature: 13.0°C (55°F)
Dewpoint: 11.0°C (52°F) [RH = 88%]
Pressure (altimeter): 30.15 inches Hg (1021.0 mb)
Winds: from the ESE (110 degrees) at 8 MPH (7 knots; 3.6 m/s)
Visibility: 6 miles ( 9 km)
Ceiling: 1600 feet AGL
Clouds: broken clouds at 1600 feet AGL
overcast cloud deck at 10000 feet AGL
Weather: -RA  (light rain)

Forecast for: SAAR (ROSARIO AIRPORT , AR)
Text: TAF SAAR 071700Z 0718/0818 12015KT 9999 SCT015 OVC080 TX20/0819Z TN11/0810Z
Forecast period: 1800 to 2300 UTC 07 August 2020
Forecast type: FROM: standard forecast or significant change
Winds: from the ESE (120 degrees) at 17 MPH (15 knots; 7.7 m/s)
Visibility: 6 or more miles (10+ km)
Ceiling: 8000 feet AGL
Clouds: scattered clouds at 1500 feet AGL
overcast cloud deck at 8000 feet AGL
Weather: no significant weather forecast for this period
Text: PROB30
Forecast period: 1800 to 2000 UTC 07 August 2020
Forecast type: TEMPORARY: The following changes expected for less than half the time period
Visibility: 5 miles (8 km)
Ceiling: 1500 feet AGL
Clouds: broken clouds at 1500 feet AGL
overcast cloud deck at 5000 feet AGL
few clouds at 5000 feet AGL
Weather: -TSRA  (light rain associated with thunderstorm(s))
Text: TEMPO 0718/0720 8000 -TSRA BKN015 OVC050 FEW050CB
Forecast period: 2300 UTC 07 August 2020 to 1300 UTC 08 August 2020
Forecast type: BECOMING: Conditions expected to become as follows by 0100 UTC 08 August 2020
Winds: from the ESE (120 degrees) at 12 MPH (10 knots; 5.1 m/s)
Visibility: 6 or more miles (10+ km)
Ceiling: 3000 feet AGL
Clouds: scattered clouds at 1500 feet AGL
broken clouds at 3000 feet AGL
Weather: no significant weather forecast for this period
Text: BECMG 0723/0801 12010KT 9999 SCT015 BKN030
Forecast period: 0500 to 1200 UTC 08 August 2020
Forecast type: TEMPORARY: The following changes expected for less than half the time period
Winds: from the SE (140 degrees) at 6 MPH (5 knots; 2.6 m/s)
Visibility: 2.49 miles (4.01 km)
Ceiling: unknown
Clouds: missing
Weather: BR -DZ  (mist, light drizzle)
Text: TEMPO 0805/0812 14005KT 4000 BR -DZ
Forecast period: 1300 to 1800 UTC 08 August 2020
Forecast type: BECOMING: Conditions expected to become as follows by 1500 UTC 08 August 2020
Winds: from the ESE (110 degrees) at 12 MPH (10 knots; 5.1 m/s)
Visibility: 6 or more miles (10+ km)
Ceiling: at least 12,000 feet AGL
Clouds: scattered clouds at 3000 feet AGL
Weather: no significant weather forecast for this period